Lehigh Valley International Airport
KABE : now visible

Airfield :











YOU CAN JOIN US ON...

 
LOGIN :

Register | Disclaimer

   EN    FR    IT 

 









Legend :    VFR   Marginal VFR   IFR   Intensive IFR   Very Intensive IFR
Visi :
Ceiling :
>= 8 km
>= 3000ft
5 to 8 km
1000 to 3000 ft
1500m to 5 km
500 to 1000 ft
800 to 1500m
200 to 500 ft
< 800m
< 200 ft
Symbols :   Thunderstorms  Fog  Heavy snow  Heavy precipitations  Wind > 20 kt






- Airport Elevation : 393 ft
- IATA code : ABE


KABE - Lehigh Valley International

CURRENT METAR :
  • 142016Z 25012KT 5SM -RA BR BKN007 BKN018 OVC038 11/08 A2922 RMK AO2 P0001 T01060083

EXPIRED METARs :
  • 142003Z 25007KT 6SM -RA BR SCT006 BKN028 OVC037 11/08 A2922 RMK AO2 P0000 T01060083
  • 141951Z 26008KT 5SM -RA BR SCT005 BKN014 OVC041 11/08 A2921 RMK AO2 RAB1854 SLP893 P0009 T01060083
  • 141939Z 26009KT 2SM -RA BR BKN003 OVC011 11/09 A2922 RMK AO2 SFC VIS 2 1/2 RAB1854 P0008 T01060089
  • 141851Z 09005KT 1 1/2SM BR OVC002 11/08 A2919 RMK AO2 RAB25E44 SLP886 P0001 T01060083
  • 141842Z 09006KT 1 1/4SM -RA BR OVC003 11/08 A2920 RMK AO2 TWR VIS 1 1/2 RAB25 P0001 T01060083
  • 141751Z 07007KT 1 1/2SM BR OVC004 11/08 A2923 RMK AO2 SFC VIS 2 1/2 SLP899 T01060083 10106 20083 58064

TAF KABE
Valid from the 14 at 20:00 until the 15 at 18:00 UTC


142023Z 1420/1518 24012G19KT 6SM -SHRA BR BKN007 OVC020
FM142100 25010KT P6SM BKN020
TEMPO 1421/1422 BKN015
FM150100 26014G29KT P6SM BKN050
FM150800 26013G27KT P6SM SCT080



MET'MAP, your aeronautical weather chart ! - Copyright ORBIFLY December 2007 - Disclaimer

ORBIFLY MET'MAP TEAM :

Programming & Development : Alexandra Zaïnal
Concept & original design : Baudouin d'Aumeries
Assistance for programming : Marc-Olivier Méhu
Technical & hardware support : Manuel Goepfert

Contact : metmap@orbifly.com




SOURCES & CREDITS :

   NOAA       Earth
Advisory